Time;durP1;ratioP1;P1;durP2;ratioP2;P2;SDS_P1;SDS_P2;PMS_P1;PMS_P2;Temp;Humidity;BMP_temperature;BMP_pressure;BME280_temperature;BME280_humidity;BME280_pressure;Samples;Min_cycle;Max_cycle;Signal;HPM_P1;HPM_P2
2023/10/26 02:22:43;;;;;;;;;;;10.60;87.40;;;;;;4191147;28;20417;-82
2023/10/26 02:25:04;;;;;;;;;;;10.80;87.60;;;;;;4181386;28;19951;-84
2023/10/26 02:27:24;;;;;;;;;;;10.60;87.80;;;;;;4193284;28;20441;-84
2023/10/26 02:29:44;;;;;;;;;;;10.70;87.80;;;;;;4194617;28;20404;-84
2023/10/26 02:32:05;;;;;;;;;;;10.60;87.90;;;;;;4194827;28;20487;-83
2023/10/26 02:34:26;;;;;;;;;;;10.70;87.60;;;;;;4191536;28;20406;-83
2023/10/26 02:36:47;;;;;;;;;;;10.70;87.50;;;;;;4197992;28;19947;-83
2023/10/26 02:39:07;;;;;;;;;;;10.70;87.50;;;;;;4193928;28;20510;-82
2023/10/26 02:41:31;;;;;;;;;;;10.70;87.50;;;;;;4190531;28;19913;-82
2023/10/26 02:43:51;;;;;;;;;;;10.70;87.50;;;;;;4181291;28;19967;-84
2023/10/26 02:46:12;;;;;;;;;;;10.70;87.50;;;;;;4201427;28;19923;-84
2023/10/26 02:48:33;;;;;;;;;;;10.60;87.50;;;;;;4199848;28;20437;-84
2023/10/26 02:50:53;;;;;;;;;;;10.70;87.50;;;;;;4184378;28;19908;-83
2023/10/26 02:53:14;;;;;;;;;;;10.70;87.50;;;;;;4199793;28;20492;-84
2023/10/26 02:55:34;;;;;;;;;;;10.60;87.60;;;;;;4202093;28;19912;-82
2023/10/26 02:57:55;;;;;;;;;;;10.60;87.80;;;;;;4208426;28;20438;-84
2023/10/26 03:00:16;;;;;;;;;;;10.60;87.60;;;;;;4194902;28;20389;-84
2023/10/26 03:02:36;;;;;;;;;;;10.60;87.70;;;;;;4182751;28;19923;-83
2023/10/26 03:04:57;;;;;;;;;;;10.70;87.80;;;;;;4196437;28;19997;-83
2023/10/26 03:07:22;;;;;;;;;;;10.50;87.90;;;;;;4191748;28;20367;-84
2023/10/26 03:09:43;;;;;;;;;;;10.50;87.90;;;;;;4197370;28;20457;-83
2023/10/26 03:12:03;;;;;;;;;;;10.50;88.00;;;;;;4194188;28;20327;-83
2023/10/26 03:14:24;;;;;;;;;;;10.50;87.90;;;;;;4182730;28;19916;-84
2023/10/26 03:16:44;;;;;;;;;;;10.60;87.80;;;;;;4199059;28;20353;-83
2023/10/26 03:19:05;;;;;;;;;;;10.40;87.90;;;;;;4198691;28;20020;-83
2023/10/26 03:21:26;;;;;;;;;;;10.40;88.00;;;;;;4195867;28;20500;-83
2023/10/26 03:23:53;;;;;;;;;;;10.50;88.00;;;;;;4195509;28;20016;-84
2023/10/26 03:26:12;;;;;;;;;;;10.40;87.90;;;;;;4192524;28;19970;-83
2023/10/26 03:28:31;;;;;;;;;;;10.40;88.00;;;;;;4193797;28;19968;-84
2023/10/26 03:30:51;;;;;;;;;;;10.30;87.80;;;;;;4192736;28;19943;-85
2023/10/26 03:33:10;;;;;;;;;;;10.30;88.20;;;;;;4197921;28;19943;-84
2023/10/26 03:35:32;;;;;;;;;;;10.20;88.20;;;;;;4180254;28;20000;-83
2023/10/26 03:37:51;;;;;;;;;;;10.20;88.40;;;;;;4195103;28;19920;-83
2023/10/26 03:40:13;;;;;;;;;;;10.30;89.40;;;;;;4193167;28;20329;-82
2023/10/26 03:42:32;;;;;;;;;;;10.30;88.60;;;;;;4188238;28;19978;-84
2023/10/26 03:44:51;;;;;;;;;;;10.10;88.90;;;;;;4192840;28;19969;-84
2023/10/26 03:47:10;;;;;;;;;;;10.20;89.70;;;;;;4194573;28;19923;-83
2023/10/26 03:49:30;;;;;;;;;;;10.20;89.60;;;;;;4196268;28;19915;-85
2023/10/26 03:51:49;;;;;;;;;;;10.10;89.10;;;;;;4178737;28;19936;-84
2023/10/26 03:54:08;;;;;;;;;;;10.00;89.60;;;;;;4194570;28;19974;-84
2023/10/26 03:56:28;;;;;;;;;;;10.10;89.80;;;;;;4200335;28;19915;-83
2023/10/26 03:58:47;;;;;;;;;;;10.10;89.60;;;;;;4194565;28;19923;-86
2023/10/26 04:01:07;;;;;;;;;;;10.00;89.20;;;;;;4193262;28;19955;-84
2023/10/26 04:03:27;;;;;;;;;;;10.10;90.10;;;;;;4189438;28;20496;-82
2023/10/26 04:05:46;;;;;;;;;;;10.10;89.80;;;;;;4194052;28;19942;-84
2023/10/26 04:08:06;;;;;;;;;;;10.10;89.50;;;;;;4178979;28;20325;-85
2023/10/26 04:10:25;;;;;;;;;;;10.10;90.20;;;;;;4190909;28;19969;-84
2023/10/26 04:12:44;;;;;;;;;;;10.00;89.50;;;;;;4190199;28;19928;-84
2023/10/26 04:15:04;;;;;;;;;;;10.00;89.70;;;;;;4176951;28;19994;-84
2023/10/26 04:17:23;;;;;;;;;;;10.10;89.80;;;;;;4190973;28;19965;-84
2023/10/26 04:19:42;;;;;;;;;;;10.20;89.60;;;;;;4190767;28;19991;-84
2023/10/26 04:22:05;;;;;;;;;;;10.10;89.60;;;;;;4192329;28;20071;-86
2023/10/26 04:24:24;;;;;;;;;;;10.10;89.70;;;;;;4191145;28;19931;-84
2023/10/26 04:26:43;;;;;;;;;;;10.10;90.10;;;;;;4176727;28;20011;-84
2023/10/26 04:29:05;;;;;;;;;;;10.20;89.90;;;;;;4190500;28;20321;-84
2023/10/26 04:31:26;;;;;;;;;;;10.20;89.70;;;;;;4188790;28;20655;-84
2023/10/26 04:33:45;;;;;;;;;;;10.00;89.50;;;;;;4189466;28;19927;-85
2023/10/26 04:36:06;;;;;;;;;;;10.00;89.40;;;;;;4191683;28;19919;-85
2023/10/26 04:38:26;;;;;;;;;;;9.90;89.10;;;;;;4193904;28;20286;-85
2023/10/26 04:40:45;;;;;;;;;;;10.00;89.50;;;;;;4192390;28;19967;-84
2023/10/26 04:43:05;;;;;;;;;;;9.90;89.10;;;;;;4180350;28;19923;-83
2023/10/26 04:45:28;;;;;;;;;;;10.00;89.70;;;;;;4191383;28;19931;-86
2023/10/26 04:47:47;;;;;;;;;;;9.80;89.20;;;;;;4179116;28;20027;-83
2023/10/26 04:50:06;;;;;;;;;;;9.70;89.80;;;;;;4197660;28;19954;-83
2023/10/26 04:52:26;;;;;;;;;;;9.80;89.80;;;;;;4191227;28;20282;-83
2023/10/26 04:54:45;;;;;;;;;;;9.70;89.70;;;;;;4191945;28;19928;-83
2023/10/26 04:57:04;;;;;;;;;;;9.70;89.80;;;;;;4177746;28;19959;-85
2023/10/26 04:59:24;;;;;;;;;;;9.80;90.00;;;;;;4190932;28;20297;-83
2023/10/26 05:01:43;;;;;;;;;;;9.70;90.30;;;;;;4190620;28;19919;-83
2023/10/26 05:04:02;;;;;;;;;;;9.70;90.20;;;;;;4185133;28;19919;-86
2023/10/26 05:06:21;;;;;;;;;;;9.60;89.80;;;;;;4194035;28;19919;-83
2023/10/26 05:08:41;;;;;;;;;;;9.70;90.00;;;;;;4209119;28;19938;-84
2023/10/26 05:11:00;;;;;;;;;;;9.60;89.60;;;;;;4197834;28;20573;-86
2023/10/26 05:13:19;;;;;;;;;;;9.50;89.50;;;;;;4175715;28;20562;-86
2023/10/26 05:15:38;;;;;;;;;;;9.50;90.00;;;;;;4190905;28;19992;-85
2023/10/26 05:17:58;;;;;;;;;;;9.50;90.20;;;;;;4191133;28;20392;-84
2023/10/26 05:20:17;;;;;;;;;;;9.50;90.00;;;;;;4193392;28;19955;-83
2023/10/26 05:22:37;;;;;;;;;;;9.40;89.60;;;;;;4178063;28;19996;-84
2023/10/26 05:24:56;;;;;;;;;;;9.40;90.10;;;;;;4194736;28;19991;-85
2023/10/26 05:27:15;;;;;;;;;;;9.40;90.00;;;;;;4179724;28;19931;-85
2023/10/26 05:29:34;;;;;;;;;;;9.40;90.10;;;;;;4193383;28;19924;-84
2023/10/26 05:31:55;;;;;;;;;;;9.50;90.10;;;;;;4193338;28;20377;-84
2023/10/26 05:34:14;;;;;;;;;;;9.40;90.40;;;;;;4189547;28;19916;-85
2023/10/26 05:36:33;;;;;;;;;;;9.40;90.00;;;;;;4191034;28;19965;-84
2023/10/26 05:38:55;;;;;;;;;;;9.30;90.30;;;;;;4174927;28;19945;-85
2023/10/26 05:41:14;;;;;;;;;;;9.50;90.00;;;;;;4175884;28;19940;-85
2023/10/26 05:43:34;;;;;;;;;;;9.60;89.90;;;;;;4193235;28;19920;-86
2023/10/26 05:45:54;;;;;;;;;;;9.50;89.70;;;;;;4188566;28;19922;-85
2023/10/26 05:48:13;;;;;;;;;;;9.60;89.70;;;;;;4192853;28;19916;-87
2023/10/26 05:50:40;;;;;;;;;;;9.60;90.20;;;;;;4192140;28;19981;-87
2023/10/26 05:53:00;;;;;;;;;;;9.60;89.60;;;;;;4192675;28;19966;-84
2023/10/26 05:55:19;;;;;;;;;;;9.40;89.60;;;;;;4188183;28;19935;-85
2023/10/26 05:57:27;;;;;;;;;;;9.40;90.00;;;;;;4171430;28;19913;-83
2023/10/26 05:59:28;;;;;;;;;;;9.50;89.50;;;;;;4175765;28;19917;-83
2023/10/26 06:01:28;;;;;;;;;;;9.40;89.40;;;;;;4176720;28;19971;-86
2023/10/26 06:03:49;;;;;;;;;;;9.40;89.40;;;;;;4193655;28;19971;-83
2023/10/26 06:06:05;;;;;;;;;;;9.40;89.50;;;;;;4175993;28;20332;-84
2023/10/26 06:08:25;;;;;;;;;;;9.40;89.50;;;;;;4188577;28;19928;-85
2023/10/26 06:10:46;;;;;;;;;;;9.40;89.40;;;;;;4188988;28;19913;-84
2023/10/26 06:13:09;;;;;;;;;;;9.40;89.20;;;;;;4191217;28;20295;-85
2023/10/26 06:15:30;;;;;;;;;;;9.50;89.40;;;;;;4178185;28;19916;-86
2023/10/26 06:17:51;;;;;;;;;;;9.50;89.00;;;;;;4191758;28;20262;-85
2023/10/26 06:20:09;;;;;;;;;;;9.40;89.20;;;;;;4162554;28;19913;-84
2023/10/26 06:22:29;;;;;;;;;;;9.40;88.90;;;;;;4203231;28;19951;-84
2023/10/26 06:24:50;;;;;;;;;;;9.50;89.00;;;;;;4211247;28;20709;-85
2023/10/26 06:27:11;;;;;;;;;;;9.50;88.90;;;;;;4213052;28;19905;-84
2023/10/26 06:29:32;;;;;;;;;;;9.50;89.10;;;;;;4196806;28;19949;-85
2023/10/26 06:31:52;;;;;;;;;;;9.50;88.90;;;;;;4182348;28;20394;-86
2023/10/26 06:34:13;;;;;;;;;;;9.40;88.70;;;;;;4178336;28;19917;-85
2023/10/26 06:36:33;;;;;;;;;;;9.40;88.90;;;;;;4189657;28;19913;-85
2023/10/26 06:38:56;;;;;;;;;;;9.40;88.90;;;;;;4192848;28;19971;-85
2023/10/26 06:41:16;;;;;;;;;;;9.30;88.70;;;;;;4178044;28;20356;-85
2023/10/26 06:43:37;;;;;;;;;;;9.20;89.10;;;;;;4176848;28;20515;-85
2023/10/26 06:46:01;;;;;;;;;;;9.20;89.00;;;;;;4195160;28;20338;-85
2023/10/26 06:48:22;;;;;;;;;;;9.20;89.20;;;;;;4181121;28;20361;-84
2023/10/26 06:50:45;;;;;;;;;;;9.20;89.20;;;;;;4191922;28;20329;-84
2023/10/26 06:53:06;;;;;;;;;;;9.20;89.40;;;;;;4197577;28;20289;-84
2023/10/26 06:55:31;;;;;;;;;;;9.20;89.10;;;;;;4192124;28;20282;-82
2023/10/26 06:57:54;;;;;;;;;;;9.20;89.30;;;;;;4179987;28;19924;-83
2023/10/26 07:00:15;;;;;;;;;;;9.20;90.00;;;;;;4193554;28;19990;-84
2023/10/26 07:02:36;;;;;;;;;;;9.20;89.10;;;;;;4195412;28;19915;-83
2023/10/26 07:04:56;;;;;;;;;;;9.30;89.00;;;;;;4191474;28;19912;-84
2023/10/26 07:07:17;;;;;;;;;;;9.20;88.90;;;;;;4189478;28;19920;-83
2023/10/26 07:09:38;;;;;;;;;;;9.30;88.80;;;;;;4195458;28;19920;-83
2023/10/26 07:11:58;;;;;;;;;;;9.40;88.90;;;;;;4182159;28;20348;-83
2023/10/26 07:14:21;;;;;;;;;;;9.20;88.70;;;;;;4181508;28;19916;-84
2023/10/26 07:16:42;;;;;;;;;;;9.30;88.70;;;;;;4192466;28;19965;-85
2023/10/26 07:19:02;;;;;;;;;;;9.30;88.40;;;;;;4191930;28;19920;-84
2023/10/26 07:21:23;;;;;;;;;;;9.10;88.20;;;;;;4203583;28;19912;-82
2023/10/26 07:23:43;;;;;;;;;;;9.10;88.60;;;;;;4207494;28;19971;-84
2023/10/26 07:26:04;;;;;;;;;;;9.20;88.60;;;;;;4183413;28;19982;-84
2023/10/26 07:28:24;;;;;;;;;;;9.10;88.60;;;;;;4197643;28;19920;-85
2023/10/26 07:30:50;;;;;;;;;;;9.10;88.40;;;;;;4196111;28;20448;-83
2023/10/26 07:33:11;;;;;;;;;;;9.20;88.50;;;;;;4193894;28;19915;-84
2023/10/26 07:35:38;;;;;;;;;;;9.20;88.40;;;;;;4181428;28;20337;-83
2023/10/26 07:37:59;;;;;;;;;;;9.10;88.30;;;;;;4194335;28;20298;-85
2023/10/26 07:40:19;;;;;;;;;;;9.00;88.40;;;;;;4195933;28;19912;-83
2023/10/26 07:42:40;;;;;;;;;;;9.10;88.30;;;;;;4192870;28;20010;-84
2023/10/26 07:45:00;;;;;;;;;;;9.00;88.40;;;;;;4194230;28;19917;-83
2023/10/26 07:47:01;;;;;;;;;;;9.10;88.60;;;;;;4176492;28;20322;-84
2023/10/26 07:49:03;;;;;;;;;;;9.00;88.30;;;;;;4179321;28;19913;-83
2023/10/26 07:51:24;;;;;;;;;;;9.00;88.80;;;;;;4194641;28;20027;-84
2023/10/26 07:53:44;;;;;;;;;;;9.00;88.70;;;;;;4193272;28;19926;-85
2023/10/26 07:55:45;;;;;;;;;;;9.10;88.30;;;;;;4176561;28;19987;-83
2023/10/26 07:58:06;;;;;;;;;;;9.10;88.20;;;;;;4190826;28;19916;-84
2023/10/26 08:00:26;;;;;;;;;;;9.30;88.50;;;;;;4194961;28;20355;-86
2023/10/26 08:02:47;;;;;;;;;;;9.20;88.10;;;;;;4196134;28;20362;-84
2023/10/26 08:05:12;;;;;;;;;;;9.10;87.90;;;;;;4192823;28;19927;-83
2023/10/26 08:07:33;;;;;;;;;;;9.10;88.00;;;;;;4194935;28;19913;-83
2023/10/26 08:09:53;;;;;;;;;;;9.20;88.30;;;;;;4197407;28;20500;-83
2023/10/26 08:12:16;;;;;;;;;;;9.10;87.80;;;;;;4179463;28;19917;-85
2023/10/26 08:14:37;;;;;;;;;;;9.10;87.80;;;;;;4197565;28;19917;-83
2023/10/26 08:16:59;;;;;;;;;;;9.00;87.90;;;;;;4195155;28;19913;-83
2023/10/26 08:19:19;;;;;;;;;;;9.20;88.20;;;;;;4184376;28;19912;-84
2023/10/26 08:21:40;;;;;;;;;;;9.00;87.70;;;;;;4197365;28;19980;-82
2023/10/26 08:24:00;;;;;;;;;;;9.00;87.80;;;;;;4195053;28;20347;-84
2023/10/26 08:26:21;;;;;;;;;;;9.00;88.00;;;;;;4196372;28;19986;-84
2023/10/26 08:28:41;;;;;;;;;;;8.90;88.10;;;;;;4175009;28;19942;-85
2023/10/26 08:31:02;;;;;;;;;;;9.00;88.70;;;;;;4183586;28;19913;-85
2023/10/26 08:33:23;;;;;;;;;;;8.90;88.10;;;;;;4194853;28;20029;-86
2023/10/26 08:35:32;;;;;;;;;;;8.90;88.10;;;;;;4178647;28;20429;-83
2023/10/26 08:37:33;;;;;;;;;;;9.00;88.10;;;;;;4177139;28;19955;-84
2023/10/26 08:39:36;;;;;;;;;;;9.00;88.10;;;;;;4158908;28;20385;-84
2023/10/26 08:41:37;;;;;;;;;;;9.00;88.10;;;;;;4193880;28;19913;-84
2023/10/26 08:43:37;;;;;;;;;;;9.10;88.20;;;;;;4163058;28;19915;-85
2023/10/26 08:45:38;;;;;;;;;;;9.00;88.10;;;;;;4190867;28;20441;-82
2023/10/26 08:47:41;;;;;;;;;;;9.10;88.50;;;;;;4177934;28;19908;-83
2023/10/26 08:50:02;;;;;;;;;;;9.10;88.10;;;;;;4190147;28;19917;-83
2023/10/26 08:52:22;;;;;;;;;;;9.20;88.20;;;;;;4194380;28;19989;-85
2023/10/26 08:54:43;;;;;;;;;;;9.20;88.00;;;;;;4181286;28;20560;-84
2023/10/26 08:57:07;;;;;;;;;;;9.20;87.70;;;;;;4188565;28;20357;-85
2023/10/26 08:59:31;;;;;;;;;;;9.10;87.70;;;;;;4191440;28;19913;-85
2023/10/26 09:01:52;;;;;;;;;;;9.30;87.60;;;;;;4193900;28;20315;-83
2023/10/26 09:04:13;;;;;;;;;;;9.20;87.40;;;;;;4191673;28;20303;-84
2023/10/26 09:06:46;;;;;;;;;;;9.20;87.30;;;;;;4191494;28;20397;-85
2023/10/26 09:09:07;;;;;;;;;;;9.20;87.00;;;;;;4191695;28;19916;-83
2023/10/26 09:11:27;;;;;;;;;;;9.30;87.10;;;;;;4191189;28;20317;-85
2023/10/26 09:13:50;;;;;;;;;;;9.20;86.90;;;;;;4190943;28;19967;-85
2023/10/26 09:16:10;;;;;;;;;;;9.20;86.80;;;;;;4184027;28;19912;-84
2023/10/26 09:18:31;;;;;;;;;;;9.20;87.10;;;;;;4192674;28;19912;-85
2023/10/26 09:21:05;;;;;;;;;;;9.20;87.40;;;;;;4181198;28;20006;-85
2023/10/26 09:23:27;;;;;;;;;;;9.10;87.10;;;;;;4180786;28;19960;-85
2023/10/26 09:25:58;;;;;;;;;;;9.10;86.90;;;;;;4178816;28;19917;-84
2023/10/26 09:28:18;;;;;;;;;;;9.20;87.00;;;;;;4192850;28;19912;-84
2023/10/26 09:30:39;;;;;;;;;;;9.30;87.00;;;;;;4185025;28;19952;-83
2023/10/26 09:33:01;;;;;;;;;;;9.30;86.90;;;;;;4197828;28;19935;-85
2023/10/26 09:35:32;;;;;;;;;;;9.20;86.30;;;;;;4180302;28;19913;-83
2023/10/26 09:37:53;;;;;;;;;;;9.20;86.40;;;;;;4178525;28;19917;-84
2023/10/26 09:40:14;;;;;;;;;;;9.30;86.30;;;;;;4210454;28;20005;-84
2023/10/26 09:42:34;;;;;;;;;;;9.30;86.40;;;;;;4179835;28;19999;-86
2023/10/26 09:44:57;;;;;;;;;;;9.10;86.10;;;;;;4189478;28;19921;-83
2023/10/26 09:47:18;;;;;;;;;;;9.20;86.40;;;;;;4180766;28;19920;-85
2023/10/26 09:49:39;;;;;;;;;;;9.20;86.20;;;;;;4190055;28;20374;-83
2023/10/26 09:51:59;;;;;;;;;;;9.20;86.40;;;;;;4191833;28;19908;-84
2023/10/26 09:54:24;;;;;;;;;;;9.30;86.40;;;;;;4178154;28;19940;-84
2023/10/26 09:56:47;;;;;;;;;;;9.30;86.40;;;;;;4191859;28;19923;-83
2023/10/26 09:59:08;;;;;;;;;;;9.20;86.40;;;;;;4193939;28;19942;-84
2023/10/26 10:01:29;;;;;;;;;;;9.20;86.20;;;;;;4191694;28;19923;-83
2023/10/26 10:03:50;;;;;;;;;;;9.40;86.40;;;;;;4173934;28;19913;-85
2023/10/26 10:06:30;;;;;;;;;;;9.30;86.20;;;;;;4196319;28;19913;-84
2023/10/26 10:09:00;;;;;;;;;;;9.30;86.40;;;;;;4194790;28;19912;-85
2023/10/26 10:11:21;;;;;;;;;;;9.30;86.10;;;;;;4178405;28;19913;-83
2023/10/26 10:13:40;;;;;;;;;;;9.30;86.10;;;;;;4179416;28;20377;-83
2023/10/26 10:15:59;;;;;;;;;;;9.40;86.20;;;;;;4191049;28;19930;-83
2023/10/26 10:18:20;;;;;;;;;;;9.40;86.20;;;;;;4183562;28;19956;-84
2023/10/26 10:20:43;;;;;;;;;;;9.30;85.90;;;;;;4193669;28;20396;-84
2023/10/26 10:23:02;;;;;;;;;;;9.30;86.00;;;;;;4197296;28;19928;-83
2023/10/26 10:25:24;;;;;;;;;;;9.20;86.00;;;;;;4198021;28;19986;-84
2023/10/26 10:27:53;;;;;;;;;;;9.30;85.90;;;;;;4186111;28;20059;-85
2023/10/26 10:30:12;;;;;;;;;;;9.30;86.60;;;;;;4180829;28;19963;-88
2023/10/26 10:32:53;;;;;;;;;;;9.30;86.80;;;;;;4195932;28;19995;-84
2023/10/26 10:35:21;;;;;;;;;;;9.30;86.00;;;;;;4180680;28;19955;-85
2023/10/26 10:38:00;;;;;;;;;;;9.30;86.10;;;;;;4196314;28;19930;-86
2023/10/26 10:40:20;;;;;;;;;;;9.30;86.20;;;;;;4200345;28;19958;-84
2023/10/26 10:42:40;;;;;;;;;;;9.30;85.90;;;;;;4181939;28;19980;-85
2023/10/26 10:45:00;;;;;;;;;;;9.30;86.00;;;;;;4197399;28;20117;-85
2023/10/26 10:47:19;;;;;;;;;;;9.30;86.00;;;;;;4184322;28;19916;-83
2023/10/26 10:49:38;;;;;;;;;;;9.20;86.00;;;;;;4182298;28;19935;-85
2023/10/26 10:51:58;;;;;;;;;;;9.20;86.20;;;;;;4196183;28;20008;-85
2023/10/26 10:54:20;;;;;;;;;;;9.40;86.30;;;;;;4182474;28;19919;-85
2023/10/26 10:56:41;;;;;;;;;;;9.30;86.00;;;;;;4196642;28;19955;-85
2023/10/26 10:59:00;;;;;;;;;;;9.30;86.20;;;;;;4192221;28;19920;-85
2023/10/26 11:01:20;;;;;;;;;;;9.20;86.30;;;;;;4195805;28;19962;-84
2023/10/26 11:03:42;;;;;;;;;;;9.30;86.60;;;;;;4185537;28;20023;-83
2023/10/26 11:06:01;;;;;;;;;;;9.20;87.30;;;;;;4193663;28;19923;-86
2023/10/26 11:08:20;;;;;;;;;;;9.10;86.40;;;;;;4181209;28;20457;-85
2023/10/26 11:10:40;;;;;;;;;;;9.30;86.80;;;;;;4183502;28;19915;-84
2023/10/26 11:12:59;;;;;;;;;;;9.20;86.90;;;;;;4193212;28;19995;-85
2023/10/26 11:15:21;;;;;;;;;;;9.20;87.00;;;;;;4181721;28;19967;-85
2023/10/26 11:17:40;;;;;;;;;;;9.30;87.00;;;;;;4195243;28;19915;-84
2023/10/26 11:19:59;;;;;;;;;;;9.30;86.90;;;;;;4182580;28;19955;-86
2023/10/26 11:22:19;;;;;;;;;;;9.30;86.90;;;;;;4178997;28;20466;-83
2023/10/26 11:24:39;;;;;;;;;;;9.20;86.60;;;;;;4193549;28;19970;-84
2023/10/26 11:27:18;;;;;;;;;;;9.40;86.90;;;;;;4193872;28;19916;-86
2023/10/26 11:29:43;;;;;;;;;;;9.30;87.00;;;;;;4197123;28;19915;-84
2023/10/26 11:32:02;;;;;;;;;;;9.40;87.70;;;;;;4197488;28;20035;-85
2023/10/26 11:34:24;;;;;;;;;;;9.30;87.70;;;;;;4179826;28;20322;-86
2023/10/26 11:36:44;;;;;;;;;;;9.30;87.10;;;;;;4185396;28;19931;-85
2023/10/26 11:39:04;;;;;;;;;;;9.40;87.20;;;;;;4179325;28;19919;-85
2023/10/26 11:41:24;;;;;;;;;;;9.30;87.20;;;;;;4185259;28;20270;-87
2023/10/26 11:43:44;;;;;;;;;;;9.20;87.50;;;;;;4190789;28;19970;-85
2023/10/26 11:46:03;;;;;;;;;;;9.20;86.80;;;;;;4191370;28;19935;-85
2023/10/26 11:48:31;;;;;;;;;;;9.30;86.90;;;;;;4191996;28;20285;-84
2023/10/26 11:50:50;;;;;;;;;;;9.20;86.90;;;;;;4194999;28;19963;-84
2023/10/26 11:53:11;;;;;;;;;;;9.20;86.90;;;;;;4190638;28;19923;-85
2023/10/26 11:55:34;;;;;;;;;;;9.30;86.90;;;;;;4193797;28;19961;-85
2023/10/26 11:57:56;;;;;;;;;;;9.30;86.70;;;;;;4196163;28;19916;-84
2023/10/26 12:00:18;;;;;;;;;;;9.20;86.60;;;;;;4408301;22;20044;-82
2023/10/26 12:02:37;;;;;;;;;;;9.20;86.70;;;;;;4200090;28;19928;-87
2023/10/26 12:05:00;;;;;;;;;;;9.20;86.50;;;;;;4212748;28;20054;-84
2023/10/26 12:07:19;;;;;;;;;;;9.30;86.70;;;;;;4212637;28;19928;-83
2023/10/26 12:09:38;;;;;;;;;;;9.30;86.70;;;;;;4190592;28;19927;-84
2023/10/26 12:11:58;;;;;;;;;;;9.30;86.40;;;;;;4201946;28;19938;-84
2023/10/26 12:14:17;;;;;;;;;;;9.20;86.20;;;;;;4196488;28;20007;-84
2023/10/26 12:16:36;;;;;;;;;;;9.20;86.30;;;;;;4195411;28;19965;-85
2023/10/26 12:18:56;;;;;;;;;;;9.20;86.10;;;;;;4177131;28;19924;-84
2023/10/26 12:21:15;;;;;;;;;;;9.20;86.10;;;;;;4195556;28;19915;-85
2023/10/26 12:23:34;;;;;;;;;;;9.30;86.90;;;;;;4201120;28;19923;-85
2023/10/26 12:25:54;;;;;;;;;;;9.40;86.00;;;;;;4198042;28;19972;-85
2023/10/26 12:28:13;;;;;;;;;;;9.20;85.80;;;;;;4206932;28;19920;-88
2023/10/26 12:30:32;;;;;;;;;;;9.30;85.60;;;;;;4215528;28;19908;-86
2023/10/26 12:32:55;;;;;;;;;;;9.30;85.70;;;;;;4193891;28;19936;-86
2023/10/26 12:35:14;;;;;;;;;;;9.30;86.20;;;;;;4194578;28;19919;-86
2023/10/26 12:37:33;;;;;;;;;;;9.30;85.20;;;;;;4202218;28;19935;-86
2023/10/26 12:39:55;;;;;;;;;;;9.20;85.10;;;;;;4188358;28;19931;-85
2023/10/26 12:42:14;;;;;;;;;;;9.20;85.40;;;;;;4178843;28;20450;-86
2023/10/26 12:44:37;;;;;;;;;;;9.20;85.30;;;;;;4188367;28;19965;-87
2023/10/26 12:46:56;;;;;;;;;;;9.30;85.20;;;;;;4190448;28;20015;-84
2023/10/26 12:49:15;;;;;;;;;;;9.20;84.90;;;;;;4170957;28;20012;-84
2023/10/26 12:51:35;;;;;;;;;;;9.20;84.80;;;;;;4172788;28;19966;-84
2023/10/26 12:53:54;;;;;;;;;;;9.20;84.70;;;;;;4191424;28;20004;-86
2023/10/26 12:56:13;;;;;;;;;;;9.30;84.80;;;;;;4191629;28;19978;-85
2023/10/26 12:58:33;;;;;;;;;;;9.30;84.80;;;;;;4193012;28;19916;-86
2023/10/26 13:00:52;;;;;;;;;;;9.40;84.90;;;;;;4186737;28;20572;-87
2023/10/26 13:03:11;;;;;;;;;;;9.30;85.20;;;;;;4176861;28;19939;-86
2023/10/26 13:05:30;;;;;;;;;;;9.20;85.00;;;;;;4176567;28;19935;-85
2023/10/26 13:07:50;;;;;;;;;;;9.30;84.50;;;;;;4188993;28;19927;-85
2023/10/26 13:10:10;;;;;;;;;;;9.20;84.30;;;;;;4172434;28;19939;-85
2023/10/26 13:12:29;;;;;;;;;;;9.20;85.00;;;;;;4178805;28;19935;-85
2023/10/26 13:14:56;;;;;;;;;;;9.40;84.30;;;;;;4190460;28;19995;-84
2023/10/26 13:17:15;;;;;;;;;;;9.30;84.00;;;;;;4183759;28;20397;-87
2023/10/26 13:19:34;;;;;;;;;;;9.40;84.10;;;;;;4171867;28;19931;-85
2023/10/26 13:21:53;;;;;;;;;;;9.40;84.80;;;;;;4186404;28;19970;-84
2023/10/26 13:24:12;;;;;;;;;;;9.50;85.00;;;;;;4177040;28;19928;-87
2023/10/26 13:26:32;;;;;;;;;;;9.30;83.60;;;;;;4188255;28;19928;-84
2023/10/26 13:28:51;;;;;;;;;;;9.30;83.50;;;;;;4187157;28;19962;-84
2023/10/26 13:31:10;;;;;;;;;;;9.40;83.90;;;;;;4190293;28;19943;-85
2023/10/26 13:33:29;;;;;;;;;;;9.50;84.60;;;;;;4175752;28;19919;-85
2023/10/26 13:35:49;;;;;;;;;;;9.40;83.80;;;;;;4189081;28;19928;-85
2023/10/26 13:38:14;;;;;;;;;;;9.50;83.90;;;;;;4188403;28;19916;-87
2023/10/26 13:40:33;;;;;;;;;;;9.50;83.60;;;;;;4186462;28;19958;-86
2023/10/26 13:42:53;;;;;;;;;;;9.50;84.70;;;;;;4189630;28;19961;-85
2023/10/26 13:45:12;;;;;;;;;;;9.40;84.00;;;;;;4189236;28;19927;-86
2023/10/26 13:47:31;;;;;;;;;;;9.40;84.00;;;;;;4171665;28;19947;-84
2023/10/26 13:49:51;;;;;;;;;;;9.40;83.90;;;;;;4186150;28;20682;-86
2023/10/26 13:52:10;;;;;;;;;;;9.40;83.70;;;;;;4172212;28;19920;-86
2023/10/26 13:54:29;;;;;;;;;;;9.40;83.90;;;;;;4169473;28;20004;-88
2023/10/26 13:56:48;;;;;;;;;;;9.30;84.50;;;;;;4191630;28;20360;-84
2023/10/26 13:59:07;;;;;;;;;;;9.40;84.90;;;;;;4193936;28;19939;-84
2023/10/26 14:01:27;;;;;;;;;;;9.40;84.10;;;;;;4182337;28;20428;-86
2023/10/26 14:03:46;;;;;;;;;;;9.40;84.40;;;;;;4176780;28;19924;-85
2023/10/26 14:06:07;;;;;;;;;;;9.40;84.10;;;;;;4187157;28;19946;-85
2023/10/26 14:08:27;;;;;;;;;;;9.30;84.00;;;;;;4175793;28;20423;-84
2023/10/26 14:10:46;;;;;;;;;;;9.40;84.10;;;;;;4173828;28;20452;-85
2023/10/26 14:13:07;;;;;;;;;;;9.20;84.00;;;;;;4188737;28;20394;-83
2023/10/26 14:15:27;;;;;;;;;;;9.30;84.20;;;;;;4191794;28;20042;-85
2023/10/26 14:17:46;;;;;;;;;;;9.30;84.30;;;;;;4192784;28;19931;-85
2023/10/26 14:20:06;;;;;;;;;;;9.30;84.10;;;;;;4174191;28;20004;-85
2023/10/26 14:22:25;;;;;;;;;;;9.30;84.20;;;;;;4179445;28;19988;-83
2023/10/26 14:24:45;;;;;;;;;;;9.30;84.00;;;;;;4187408;28;19931;-85
2023/10/26 14:27:04;;;;;;;;;;;9.30;84.00;;;;;;4196964;28;19912;-85
2023/10/26 14:29:26;;;;;;;;;;;9.30;83.70;;;;;;4180508;28;19923;-85
2023/10/26 14:31:46;;;;;;;;;;;9.40;83.80;;;;;;4193844;28;19962;-85
2023/10/26 14:34:05;;;;;;;;;;;9.30;83.60;;;;;;4179437;28;20405;-85
2023/10/26 14:36:24;;;;;;;;;;;9.30;84.20;;;;;;4180000;28;19920;-84
2023/10/26 14:38:44;;;;;;;;;;;9.30;83.60;;;;;;4194951;28;19924;-84
2023/10/26 14:41:03;;;;;;;;;;;9.30;84.40;;;;;;4178165;28;20428;-85
2023/10/26 14:43:26;;;;;;;;;;;9.20;83.50;;;;;;4176652;28;19924;-85
2023/10/26 14:45:45;;;;;;;;;;;9.30;83.50;;;;;;4176400;28;19928;-86
2023/10/26 14:48:04;;;;;;;;;;;9.40;83.50;;;;;;4170880;28;19917;-83
2023/10/26 14:50:24;;;;;;;;;;;9.30;83.20;;;;;;4191202;28;20600;-85
2023/10/26 14:52:43;;;;;;;;;;;9.30;83.20;;;;;;4186226;28;19914;-85
2023/10/26 14:55:03;;;;;;;;;;;9.20;83.10;;;;;;4179697;28;20414;-88
2023/10/26 14:57:22;;;;;;;;;;;9.20;83.00;;;;;;4177547;28;19959;-86
2023/10/26 14:59:41;;;;;;;;;;;9.20;83.00;;;;;;4193782;28;19919;-85
2023/10/26 15:02:00;;;;;;;;;;;9.10;83.30;;;;;;4187276;28;19969;-84
2023/10/26 15:04:20;;;;;;;;;;;9.30;83.40;;;;;;4175302;28;20397;-85
2023/10/26 15:06:39;;;;;;;;;;;9.20;83.10;;;;;;4189734;28;20441;-85
2023/10/26 15:08:58;;;;;;;;;;;9.20;83.20;;;;;;4189556;28;19942;-85
2023/10/26 15:11:17;;;;;;;;;;;9.10;83.10;;;;;;4190338;28;19920;-85
2023/10/26 15:13:36;;;;;;;;;;;9.30;83.10;;;;;;4191544;28;19967;-84
2023/10/26 15:15:59;;;;;;;;;;;9.20;83.20;;;;;;4175895;28;19919;-85
2023/10/26 15:18:18;;;;;;;;;;;9.20;83.00;;;;;;4180355;28;19968;-85
2023/10/26 15:20:37;;;;;;;;;;;9.10;83.10;;;;;;4180772;28;19971;-84
2023/10/26 15:22:56;;;;;;;;;;;9.20;84.20;;;;;;4194509;28;19939;-83
2023/10/26 15:25:16;;;;;;;;;;;9.20;83.40;;;;;;4194882;28;19928;-84
2023/10/26 15:27:35;;;;;;;;;;;9.20;83.20;;;;;;4179274;28;19935;-84
2023/10/26 15:29:58;;;;;;;;;;;9.20;83.00;;;;;;4191788;28;19919;-85
2023/10/26 15:32:17;;;;;;;;;;;9.20;82.90;;;;;;4177819;28;19963;-84
2023/10/26 15:34:36;;;;;;;;;;;9.20;83.70;;;;;;4177678;28;19920;-85
2023/10/26 15:36:56;;;;;;;;;;;9.20;83.20;;;;;;4192015;28;19970;-86
2023/10/26 15:39:17;;;;;;;;;;;9.10;83.30;;;;;;4194343;28;20398;-84
2023/10/26 15:41:39;;;;;;;;;;;9.10;83.40;;;;;;4190499;28;19920;-87
2023/10/26 15:43:58;;;;;;;;;;;9.10;83.50;;;;;;4195434;28;19970;-85
2023/10/26 15:46:18;;;;;;;;;;;9.10;83.50;;;;;;4193298;28;19923;-85
2023/10/26 15:48:37;;;;;;;;;;;9.20;83.50;;;;;;4179534;28;20334;-85
2023/10/26 15:51:00;;;;;;;;;;;9.10;83.80;;;;;;4179391;28;19963;-87
2023/10/26 15:53:22;;;;;;;;;;;9.00;83.90;;;;;;4176586;28;20369;-86
2023/10/26 15:55:42;;;;;;;;;;;8.90;83.70;;;;;;4193260;28;20340;-84
2023/10/26 15:58:01;;;;;;;;;;;9.20;84.10;;;;;;4178006;28;19940;-85
2023/10/26 16:00:20;;;;;;;;;;;9.20;84.10;;;;;;4176787;28;19975;-85
2023/10/26 16:02:21;;;;;;;;;;;9.00;84.10;;;;;;4188280;28;19912;-86
2023/10/26 16:04:21;;;;;;;;;;;9.10;84.20;;;;;;4176590;28;19923;-84
2023/10/26 16:06:22;;;;;;;;;;;9.00;84.30;;;;;;4194303;28;20096;-84